Richmond, Mississippi
Current Conditions -  °F | °C
As of 2:53 AM on Saturday 29 Nov 2014 (Local Time) from KTUP Reporting Station
Broken Clouds Broken Clouds  
Wind Chill: 33°   Ceiling: 4400
Heat Index: 39°   Visibility: 10mi
Dew Point: 29°   Wind: 9mph
Humidity: 67%   Direction: 200°SSW
Pressure: 30.16"   Gusts: NA
Location:  34.1973°N, 88.6082°W
Report Text: KTUP 290853Z AUTO 20008KT 10SM BKN044 04/M02 A3016 RMK AO2 SLP212 T00391017 56004 $
Loading
Personal Weather Stations






























Interactive Weather Map New forecast layout! Learn more

10-Day Weather Forecast

Advertisements
Track Severe Weather on mobile